Time;durP1;ratioP1;P1;durP2;ratioP2;P2;SDS_P1;SDS_P2;PMS_P1;PMS_P2;Temp;Humidity;BMP_temperature;BMP_pressure;BME280_temperature;BME280_humidity;BME280_pressure;Samples;Min_cycle;Max_cycle;Signal;HPM_P1;HPM_P2
2023/03/07 00:01:03;;;;;;;;;;;;;;;-4.38;72.02;99861.66;107832;1262;71093;-80
2023/03/07 00:03:30;;;;;;;;;;;;;;;-4.39;72.06;99856.25;107490;1258;124819;-81
2023/03/07 00:06:04;;;;;;;;;;;;;;;-4.40;72.12;99855.86;107776;1262;61373;-81
2023/03/07 00:08:31;;;;;;;;;;;;;;;-4.41;72.19;99853.75;107856;1260;124642;-80
2023/03/07 00:11:02;;;;;;;;;;;;;;;-4.42;72.25;99851.45;107733;1260;65931;-80
2023/03/07 00:13:30;;;;;;;;;;;;;;;-4.43;72.33;99851.34;108170;1257;72720;-80
2023/03/07 00:16:01;;;;;;;;;;;;;;;-4.45;72.33;99848.81;107930;1255;124085;-80
2023/03/07 00:18:28;;;;;;;;;;;;;;;-4.46;72.37;99840.67;107641;1254;59825;-80
2023/03/07 00:20:56;;;;;;;;;;;;;;;-4.47;72.32;99838.87;107729;1260;124203;-81
2023/03/07 00:23:24;;;;;;;;;;;;;;;-4.48;72.48;99837.45;108285;1257;66738;-80
2023/03/07 00:26:01;;;;;;;;;;;;;;;-4.50;72.57;99834.94;107931;1257;124825;-80
2023/03/07 00:28:28;;;;;;;;;;;;;;;-4.50;72.55;99834.44;108052;1259;61182;-80
2023/03/07 00:30:59;;;;;;;;;;;;;;;-4.51;72.66;99835.95;108062;1259;60129;-79
2023/03/07 00:33:26;;;;;;;;;;;;;;;-4.51;72.75;99834.21;107642;1257;125230;-81
2023/03/07 00:35:54;;;;;;;;;;;;;;;-4.51;72.61;99829.38;107823;1257;66103;-81
2023/03/07 00:38:21;;;;;;;;;;;;;;;-4.52;72.69;99830.41;107761;1259;125064;-81
2023/03/07 00:41:09;;;;;;;;;;;;;;;-4.53;72.64;99828.74;107893;1254;59789;-81
2023/03/07 00:43:37;;;;;;;;;;;;;;;-4.55;72.73;99825.05;108245;1260;60439;-81
2023/03/07 00:46:04;;;;;;;;;;;;;;;-4.54;72.72;99824.40;108019;1260;125009;-81
2023/03/07 00:48:35;;;;;;;;;;;;;;;-4.55;72.79;99821.27;107890;1260;65523;-80
2023/03/07 00:51:09;;;;;;;;;;;;;;;-4.56;72.73;99814.45;107902;1254;124385;-85
2023/03/07 00:53:36;;;;;;;;;;;;;;;-4.59;72.83;99811.08;107670;1255;61375;-85
2023/03/07 00:56:08;;;;;;;;;;;;;;;-4.59;72.71;99811.71;107716;1254;124370;-85
2023/03/07 00:58:36;;;;;;;;;;;;;;;-4.60;72.84;99805.81;107660;1254;74429;-85
2023/03/07 01:01:04;;;;;;;;;;;;;;;-4.61;72.96;99803.23;107794;1259;65635;-84
2023/03/07 01:03:33;;;;;;;;;;;;;;;-4.61;72.95;99802.82;107933;1255;124004;-85
2023/03/07 01:06:02;;;;;;;;;;;;;;;-4.63;73.08;99797.60;108002;1256;60265;-84
2023/03/07 01:08:30;;;;;;;;;;;;;;;-4.63;73.14;99798.07;108111;1254;124228;-85
2023/03/07 01:10:58;;;;;;;;;;;;;;;-4.66;73.01;99794.66;108403;1257;73473;-85
2023/03/07 01:13:25;;;;;;;;;;;;;;;-4.65;73.13;99792.45;108170;1257;65429;-84
2023/03/07 01:15:52;;;;;;;;;;;;;;;-4.65;73.26;99787.52;107989;1254;124930;-85
2023/03/07 01:18:19;;;;;;;;;;;;;;;-4.64;73.28;99781.21;108195;1254;59568;-85
2023/03/07 01:20:52;;;;;;;;;;;;;;;-4.64;73.27;99777.44;107943;1259;124801;-85
2023/03/07 01:23:19;;;;;;;;;;;;;;;-4.62;73.25;99770.92;107976;1257;74705;-82
2023/03/07 01:25:46;;;;;;;;;;;;;;;-4.60;73.51;99771.91;108025;1257;125541;-82
2023/03/07 01:28:13;;;;;;;;;;;;;;;-4.58;73.51;99772.80;107924;1254;70535;-81
2023/03/07 01:30:40;;;;;;;;;;;;;;;-4.55;73.73;99764.23;107715;1257;62281;-80
2023/03/07 01:33:07;;;;;;;;;;;;;;;-4.52;73.78;99760.19;107847;1259;124752;-81
2023/03/07 01:35:38;;;;;;;;;;;;;;;-4.48;73.47;99758.34;107684;1255;74502;-81
2023/03/07 01:38:05;;;;;;;;;;;;;;;-4.48;73.55;99749.66;107685;1260;124802;-81
2023/03/07 01:40:32;;;;;;;;;;;;;;;-4.44;73.57;99748.52;107775;1260;73266;-82
2023/03/07 01:43:20;;;;;;;;;;;;;;;-4.41;73.66;99750.79;108111;1254;59416;-80
2023/03/07 01:45:50;;;;;;;;;;;;;;;-4.38;73.60;99747.08;107956;1257;125139;-81
2023/03/07 01:48:17;;;;;;;;;;;;;;;-4.36;73.64;99744.13;108159;1259;73829;-81
2023/03/07 01:50:44;;;;;;;;;;;;;;;-4.35;73.59;99741.48;107855;1256;124844;-81
2023/03/07 01:53:11;;;;;;;;;;;;;;;-4.34;73.55;99738.06;108101;1257;71407;-81
2023/03/07 01:55:38;;;;;;;;;;;;;;;-4.33;73.50;99736.44;108144;1257;60777;-81
2023/03/07 01:58:05;;;;;;;;;;;;;;;-4.34;73.60;99733.50;108241;1255;124532;-86
2023/03/07 02:00:35;;;;;;;;;;;;;;;-4.32;73.59;99732.08;108114;1257;74693;-86
2023/03/07 02:03:05;;;;;;;;;;;;;;;-4.30;73.59;99732.73;108111;1254;124529;-85
2023/03/07 02:05:33;;;;;;;;;;;;;;;-4.27;73.60;99727.59;108272;1254;71289;-85
2023/03/07 02:08:01;;;;;;;;;;;;;;;-4.24;73.71;99728.16;108365;1254;125202;-85
2023/03/07 02:10:28;;;;;;;;;;;;;;;-4.21;73.62;99727.11;108131;1256;59969;-85
2023/03/07 02:12:55;;;;;;;;;;;;;;;-4.18;73.64;99726.13;108083;1257;73422;-81
2023/03/07 02:15:22;;;;;;;;;;;;;;;-4.15;73.63;99723.42;107945;1261;124572;-81
2023/03/07 02:17:48;;;;;;;;;;;;;;;-4.16;73.54;99720.79;108033;1260;71406;-81
2023/03/07 02:20:25;;;;;;;;;;;;;;;-4.19;73.40;99719.88;108256;1257;124694;-81
2023/03/07 02:22:54;;;;;;;;;;;;;;;-4.22;73.35;99717.63;108468;1257;61261;-81
2023/03/07 02:25:24;;;;;;;;;;;;;;;-4.22;73.40;99719.52;108242;1256;75636;-81
2023/03/07 02:27:51;;;;;;;;;;;;;;;-4.21;73.48;99715.30;108166;1257;124767;-80
2023/03/07 02:30:19;;;;;;;;;;;;;;;-4.20;73.50;99715.70;108191;1257;73911;-81
2023/03/07 02:32:46;;;;;;;;;;;;;;;-4.20;73.44;99715.89;107806;1259;124562;-81
2023/03/07 02:35:19;;;;;;;;;;;;;;;-4.21;73.45;99712.41;107738;1261;60198;-81
2023/03/07 02:37:48;;;;;;;;;;;;;;;-4.19;73.58;99713.72;107881;1255;124710;-81
2023/03/07 02:40:15;;;;;;;;;;;;;;;-4.18;73.45;99715.51;108074;1260;65740;-81
2023/03/07 02:42:42;;;;;;;;;;;;;;;-4.19;73.55;99715.96;107710;1256;72745;-84
2023/03/07 02:45:22;;;;;;;;;;;;;;;-4.20;73.29;99710.92;107854;1255;125306;-84
2023/03/07 02:47:58;;;;;;;;;;;;;;;-4.20;73.43;99711.45;108152;1257;60137;-85
2023/03/07 02:50:25;;;;;;;;;;;;;;;-4.22;73.31;99706.66;107860;1256;124853;-85
2023/03/07 02:53:14;;;;;;;;;;;;;;;-4.23;73.64;99705.23;107984;1254;65786;-85
2023/03/07 02:55:41;;;;;;;;;;;;;;;-4.23;73.56;99704.39;107774;1256;71432;-85
2023/03/07 02:58:17;;;;;;;;;;;;;;;-4.24;73.71;99701.63;107700;1258;61132;-85
2023/03/07 03:00:44;;;;;;;;;;;;;;;-4.21;73.71;99695.94;107696;1255;60203;-84
2023/03/07 03:03:13;;;;;;;;;;;;;;;-4.20;73.70;99693.29;107500;1257;124739;-85
2023/03/07 03:05:41;;;;;;;;;;;;;;;-4.19;73.75;99690.08;107554;1256;67037;-85
2023/03/07 03:08:08;;;;;;;;;;;;;;;-4.19;73.84;99689.05;107430;1257;124640;-85
2023/03/07 03:10:35;;;;;;;;;;;;;;;-4.19;73.93;99686.48;107451;1257;61138;-85
2023/03/07 03:13:02;;;;;;;;;;;;;;;-4.18;73.88;99688.44;107429;1256;60131;-86
2023/03/07 03:15:33;;;;;;;;;;;;;;;-4.17;73.94;99687.98;107353;1257;124588;-86
2023/03/07 03:18:10;;;;;;;;;;;;;;;-4.17;73.91;99682.69;107746;1257;66253;-86
2023/03/07 03:20:46;;;;;;;;;;;;;;;-4.16;73.85;99681.08;107756;1256;124860;-86
2023/03/07 03:23:14;;;;;;;;;;;;;;;-4.15;73.85;99676.00;107753;1257;60470;-86
2023/03/07 03:25:41;;;;;;;;;;;;;;;-4.15;73.85;99677.50;108024;1257;61242;-85
2023/03/07 03:28:16;;;;;;;;;;;;;;;-4.18;73.85;99671.70;107755;1256;124825;-86
2023/03/07 03:31:00;;;;;;;;;;;;;;;-4.14;73.94;99671.61;107964;1257;67049;-86
2023/03/07 03:33:28;;;;;;;;;;;;;;;-4.11;74.18;99673.18;108038;1257;125021;-81
2023/03/07 03:35:58;;;;;;;;;;;;;;;-4.08;74.18;99670.92;107807;1257;59489;-81
2023/03/07 03:38:25;;;;;;;;;;;;;;;-4.06;74.17;99667.48;107790;1257;124808;-81
2023/03/07 03:40:52;;;;;;;;;;;;;;;-4.02;74.33;99664.29;107830;1255;74561;-81
2023/03/07 03:43:19;;;;;;;;;;;;;;;-3.99;74.40;99660.70;107976;1257;67177;-80
2023/03/07 03:45:55;;;;;;;;;;;;;;;-3.96;74.53;99656.14;107855;1258;124450;-80
2023/03/07 03:48:22;;;;;;;;;;;;;;;-3.92;74.39;99648.88;107772;1257;61241;-80
2023/03/07 03:50:49;;;;;;;;;;;;;;;-3.90;74.54;99643.70;107870;1260;124398;-81
2023/03/07 03:53:16;;;;;;;;;;;;;;;-3.86;74.51;99642.03;108296;1256;73409;-81
2023/03/07 03:55:43;;;;;;;;;;;;;;;-3.83;74.51;99638.80;108055;1257;124423;-81
2023/03/07 03:58:10;;;;;;;;;;;;;;;-3.82;74.53;99634.09;108304;1257;73275;-81
2023/03/07 04:00:37;;;;;;;;;;;;;;;-3.81;74.52;99633.45;108081;1260;59785;-81
2023/03/07 04:03:04;;;;;;;;;;;;;;;-3.81;74.41;99633.40;107946;1256;124611;-81
2023/03/07 04:05:32;;;;;;;;;;;;;;;-3.81;74.38;99631.39;108042;1257;74247;-81
2023/03/07 04:07:59;;;;;;;;;;;;;;;-3.81;74.42;99629.16;107716;1257;124542;-81
2023/03/07 04:10:26;;;;;;;;;;;;;;;-3.83;74.58;99626.48;107987;1257;73194;-82
2023/03/07 04:12:53;;;;;;;;;;;;;;;-3.83;74.55;99629.01;107708;1255;60073;-82
2023/03/07 04:15:20;;;;;;;;;;;;;;;-3.84;74.50;99624.17;108508;1257;124818;-82
2023/03/07 04:17:47;;;;;;;;;;;;;;;-3.82;74.69;99622.89;107879;1257;73545;-82
2023/03/07 04:20:17;;;;;;;;;;;;;;;-3.81;74.75;99620.75;107959;1257;124908;-81
2023/03/07 04:22:51;;;;;;;;;;;;;;;-3.80;74.71;99612.92;107766;1255;71094;-85
2023/03/07 04:25:19;;;;;;;;;;;;;;;-3.79;74.77;99609.25;107785;1256;61314;-85
2023/03/07 04:27:46;;;;;;;;;;;;;;;-3.79;74.84;99604.27;107452;1257;124052;-85
2023/03/07 04:30:14;;;;;;;;;;;;;;;-3.80;74.84;99599.90;107484;1258;73373;-86
2023/03/07 04:32:47;;;;;;;;;;;;;;;-3.80;74.95;99598.54;107542;1257;124106;-86
2023/03/07 04:35:14;;;;;;;;;;;;;;;-3.80;74.94;99596.64;107913;1257;72732;-86
2023/03/07 04:37:41;;;;;;;;;;;;;;;-3.80;74.93;99593.89;107750;1256;59740;-87
2023/03/07 04:40:10;;;;;;;;;;;;;;;-3.81;75.08;99588.35;107663;1257;123687;-85
2023/03/07 04:42:37;;;;;;;;;;;;;;;-3.81;75.01;99587.66;107835;1257;74687;-86
2023/03/07 04:45:05;;;;;;;;;;;;;;;-3.82;75.08;99581.44;107582;1257;124126;-85
2023/03/07 04:47:32;;;;;;;;;;;;;;;-3.83;75.13;99577.63;107551;1256;72747;-80
2023/03/07 04:49:59;;;;;;;;;;;;;;;-3.84;75.06;99575.63;107442;1255;124170;-85
2023/03/07 04:52:27;;;;;;;;;;;;;;;-3.85;75.20;99574.20;107506;1257;59968;-81
2023/03/07 04:55:03;;;;;;;;;;;;;;;-3.86;75.21;99575.49;107649;1257;73065;-85
2023/03/07 04:57:30;;;;;;;;;;;;;;;-3.88;75.23;99571.11;107207;1257;124043;-83
2023/03/07 04:59:57;;;;;;;;;;;;;;;-3.88;75.25;99571.27;107323;1257;71444;-87
2023/03/07 05:02:39;;;;;;;;;;;;;;;-3.88;75.38;99568.71;107240;1257;124486;-85
2023/03/07 05:05:12;;;;;;;;;;;;;;;-3.88;75.27;99569.73;107570;1256;59835;-86
2023/03/07 05:07:50;;;;;;;;;;;;;;;-3.87;75.57;99564.80;107678;1256;74419;-86
2023/03/07 05:10:17;;;;;;;;;;;;;;;-3.87;75.37;99565.50;107633;1254;67089;-82
2023/03/07 05:12:44;;;;;;;;;;;;;;;-3.85;75.47;99562.09;107726;1257;72391;-80
2023/03/07 05:15:11;;;;;;;;;;;;;;;-3.82;75.50;99561.72;108041;1254;124530;-80
2023/03/07 05:17:38;;;;;;;;;;;;;;;-3.79;75.45;99558.12;108261;1256;60034;-82
2023/03/07 05:20:05;;;;;;;;;;;;;;;-3.77;75.40;99556.41;108690;1256;126156;-81
2023/03/07 05:22:33;;;;;;;;;;;;;;;-3.73;75.59;99554.94;109085;1254;67592;-82
2023/03/07 05:25:00;;;;;;;;;;;;;;;-3.67;75.65;99543.27;107614;1254;71425;-81
2023/03/07 05:27:27;;;;;;;;;;;;;;;-3.61;75.52;99536.10;107965;1257;60420;-82
2023/03/07 05:30:00;;;;;;;;;;;;;;;-3.56;75.61;99531.64;107879;1254;60293;-86
2023/03/07 05:32:27;;;;;;;;;;;;;;;-3.49;75.62;99531.36;107718;1257;124987;-83
2023/03/07 05:34:54;;;;;;;;;;;;;;;-3.42;75.64;99530.73;107822;1259;67021;-81
2023/03/07 05:37:28;;;;;;;;;;;;;;;-3.36;75.51;99528.22;107906;1254;70919;-85
2023/03/07 05:39:55;;;;;;;;;;;;;;;-3.30;75.33;99525.79;107752;1254;124603;-85
2023/03/07 05:42:22;;;;;;;;;;;;;;;-3.23;75.38;99526.23;107589;1257;61305;-87
2023/03/07 05:44:49;;;;;;;;;;;;;;;-3.15;75.35;99525.83;107637;1254;124557;-86
2023/03/07 05:47:16;;;;;;;;;;;;;;;-3.10;75.30;99518.21;108004;1254;65971;-80
2023/03/07 05:49:43;;;;;;;;;;;;;;;-3.01;75.30;99517.26;108266;1257;72667;-81
2023/03/07 05:52:10;;;;;;;;;;;;;;;-2.87;75.53;99518.58;108119;1254;125139;-83
2023/03/07 05:54:37;;;;;;;;;;;;;;;-2.73;75.43;99512.82;108158;1255;59474;-81
2023/03/07 05:57:05;;;;;;;;;;;;;;;-2.64;75.18;99510.81;108026;1254;125154;-81
2023/03/07 05:59:32;;;;;;;;;;;;;;;-2.54;75.12;99511.68;108289;1254;65784;-82
2023/03/07 06:01:59;;;;;;;;;;;;;;;-2.46;74.93;99508.16;107762;1257;148666;-81
2023/03/07 06:04:39;;;;;;;;;;;;;;;-2.38;74.95;99509.51;107551;1254;61235;-88
2023/03/07 06:07:06;;;;;;;;;;;;;;;-2.32;74.72;99516.02;107539;1255;60762;-81
2023/03/07 06:09:33;;;;;;;;;;;;;;;-2.27;74.63;99511.30;107659;1254;126209;-81
2023/03/07 06:12:01;;;;;;;;;;;;;;;-2.20;74.77;99507.42;107622;1256;67327;-81
2023/03/07 06:14:29;;;;;;;;;;;;;;;-2.12;74.62;99507.00;107443;1254;124633;-82
2023/03/07 06:16:57;;;;;;;;;;;;;;;-2.05;74.60;99503.94;107592;1258;61881;-81
2023/03/07 06:19:24;;;;;;;;;;;;;;;-1.96;74.47;99498.90;107721;1254;60129;-81
2023/03/07 06:21:51;;;;;;;;;;;;;;;-1.85;74.51;99498.67;107674;1254;125117;-86
2023/03/07 06:24:18;;;;;;;;;;;;;;;-1.73;74.45;99496.02;107730;1254;64679;-86
2023/03/07 06:26:45;;;;;;;;;;;;;;;-1.60;74.39;99489.83;107513;1254;124653;-81
2023/03/07 06:29:12;;;;;;;;;;;;;;;-1.50;74.34;99486.05;107659;1257;59711;-81
2023/03/07 06:31:39;;;;;;;;;;;;;;;-1.37;74.26;99486.88;107561;1257;60907;-86
2023/03/07 06:34:07;;;;;;;;;;;;;;;-1.26;74.23;99479.21;107606;1254;124506;-81
2023/03/07 06:36:34;;;;;;;;;;;;;;;-1.15;74.03;99472.04;107770;1254;67154;-81
2023/03/07 06:39:01;;;;;;;;;;;;;;;-1.06;73.77;99466.82;107481;1254;123920;-81
2023/03/07 06:41:28;;;;;;;;;;;;;;;-0.97;73.69;99463.29;107784;1255;60160;-86
2023/03/07 06:43:55;;;;;;;;;;;;;;;-0.86;73.74;99461.92;107590;1254;124568;-82
2023/03/07 06:46:22;;;;;;;;;;;;;;;-0.78;73.64;99459.76;107710;1255;74704;-81
2023/03/07 06:48:50;;;;;;;;;;;;;;;-0.72;73.57;99453.01;107527;1254;65607;-81
2023/03/07 06:51:18;;;;;;;;;;;;;;;-0.65;73.41;99450.89;108278;1254;123724;-81
2023/03/07 06:53:46;;;;;;;;;;;;;;;-0.58;73.47;99448.13;107655;1256;61244;-81
2023/03/07 06:56:13;;;;;;;;;;;;;;;-0.55;73.15;99445.52;107651;1254;123920;-82
2023/03/07 06:58:40;;;;;;;;;;;;;;;-0.54;73.17;99441.98;107850;1256;75184;-81
2023/03/07 07:01:14;;;;;;;;;;;;;;;-0.52;73.23;99436.35;107303;1254;68326;-87
2023/03/07 07:03:49;;;;;;;;;;;;;;;-0.49;73.01;99431.53;107204;1254;123699;-87
2023/03/07 07:06:38;;;;;;;;;;;;;;;-0.39;73.28;99428.89;107622;1254;62261;-87
2023/03/07 07:09:05;;;;;;;;;;;;;;;-0.28;73.14;99420.44;107677;1254;123952;-86
2023/03/07 07:11:34;;;;;;;;;;;;;;;-0.14;73.09;99418.30;107793;1257;74513;-87
2023/03/07 07:14:02;;;;;;;;;;;;;;;0.03;73.01;99414.79;107896;1256;65760;-87
2023/03/07 07:16:32;;;;;;;;;;;;;;;0.17;72.93;99410.77;107672;1254;71083;-87
2023/03/07 07:19:00;;;;;;;;;;;;;;;0.33;72.80;99403.69;107866;1254;59962;-87
2023/03/07 07:21:42;;;;;;;;;;;;;;;0.48;72.81;99395.89;107488;1256;122518;-87
2023/03/07 07:24:36;;;;;;;;;;;;;;;0.59;72.30;99383.25;107524;1260;72684;-87
2023/03/07 07:27:03;;;;;;;;;;;;;;;0.72;72.01;99378.95;107379;1256;123668;-87
2023/03/07 07:29:32;;;;;;;;;;;;;;;0.79;71.72;99375.63;107473;1254;72605;-87
2023/03/07 07:31:59;;;;;;;;;;;;;;;0.86;71.51;99368.83;107302;1254;60263;-87
2023/03/07 07:34:26;;;;;;;;;;;;;;;0.92;71.17;99365.80;107943;1256;61068;-87
2023/03/07 07:37:07;;;;;;;;;;;;;;;0.94;70.92;99364.85;107544;1254;73359;-85
2023/03/07 07:39:34;;;;;;;;;;;;;;;0.93;70.53;99351.88;107262;1254;123807;-85
2023/03/07 07:42:10;;;;;;;;;;;;;;;0.93;70.30;99345.30;107404;1254;72715;-85
2023/03/07 07:44:39;;;;;;;;;;;;;;;0.93;70.13;99337.02;107365;1254;123701;-85
2023/03/07 07:47:12;;;;;;;;;;;;;;;0.98;70.29;99335.46;107479;1256;60468;-88
2023/03/07 07:49:39;;;;;;;;;;;;;;;1.06;70.14;99333.89;107243;1256;73131;-86
2023/03/07 07:52:06;;;;;;;;;;;;;;;1.17;70.35;99334.66;107466;1254;123508;-86
2023/03/07 07:54:41;;;;;;;;;;;;;;;1.27;70.03;99328.52;107377;1256;72810;-86
2023/03/07 07:57:31;;;;;;;;;;;;;;;1.38;70.07;99318.73;107457;1256;123714;-86
2023/03/07 07:59:58;;;;;;;;;;;;;;;1.56;70.05;99313.02;107645;1254;61151;-86
2023/03/07 08:02:25;;;;;;;;;;;;;;;1.70;69.88;99300.73;107512;1256;73681;-86
2023/03/07 08:08:03;;;;;;;;;;;;;;;1.71;69.19;99293.69;107543;1254;70840;-86
2023/03/07 08:10:31;;;;;;;;;;;;;;;1.72;69.08;99288.55;107224;1256;123432;-86
2023/03/07 08:13:17;;;;;;;;;;;;;;;1.77;68.82;99285.10;107425;1254;61228;-86
2023/03/07 08:15:46;;;;;;;;;;;;;;;1.81;68.91;99276.92;107640;1254;123779;-86
2023/03/07 08:18:25;;;;;;;;;;;;;;;1.83;68.72;99275.44;107878;1254;66880;-86
2023/03/07 08:20:52;;;;;;;;;;;;;;;1.80;68.55;99267.21;107413;1254;123703;-86
2023/03/07 08:23:31;;;;;;;;;;;;;;;1.76;68.32;99266.55;107394;1254;61244;-86
2023/03/07 08:26:08;;;;;;;;;;;;;;;1.73;68.21;99264.53;107412;1256;59981;-86
2023/03/07 08:28:39;;;;;;;;;;;;;;;1.76;68.09;99267.08;107616;1256;74378;-86
2023/03/07 08:31:13;;;;;;;;;;;;;;;1.80;67.76;99269.10;107909;1256;65520;-86
2023/03/07 08:33:59;;;;;;;;;;;;;;;1.77;67.57;99259.64;107579;1254;123769;-86
2023/03/07 08:36:38;;;;;;;;;;;;;;;1.70;67.46;99260.98;107622;1256;61270;-86
2023/03/07 08:39:06;;;;;;;;;;;;;;;1.73;67.51;99251.92;107279;1256;123679;-80
2023/03/07 08:41:33;;;;;;;;;;;;;;;1.85;67.53;99240.92;107564;1254;73164;-80
2023/03/07 08:44:00;;;;;;;;;;;;;;;1.97;67.45;99234.08;107759;1255;65744;-80
2023/03/07 08:46:55;;;;;;;;;;;;;;;2.10;67.17;99223.65;107457;1254;124480;-86
2023/03/07 08:49:22;;;;;;;;;;;;;;;2.34;67.09;99212.66;107491;1257;61327;-81
2023/03/07 08:51:49;;;;;;;;;;;;;;;2.54;66.64;99208.98;107694;1254;123501;-80
2023/03/07 08:54:16;;;;;;;;;;;;;;;2.69;66.33;99208.43;107794;1256;75191;-81
2023/03/07 08:56:43;;;;;;;;;;;;;;;2.83;65.99;99205.05;107755;1254;124333;-81
2023/03/07 08:59:10;;;;;;;;;;;;;;;3.00;65.92;99197.58;107644;1257;72410;-81
2023/03/07 09:01:39;;;;;;;;;;;;;;;3.12;65.60;99190.84;107759;1254;61259;-82
2023/03/07 09:04:06;;;;;;;;;;;;;;;3.20;65.11;99186.90;107690;1254;123962;-82
2023/03/07 09:06:33;;;;;;;;;;;;;;;3.25;64.90;99182.89;107815;1254;75167;-82
2023/03/07 09:08:59;;;;;;;;;;;;;;;3.31;64.63;99174.05;107699;1257;123876;-82
2023/03/07 09:11:27;;;;;;;;;;;;;;;3.36;64.52;99173.86;107795;1254;72706;-82
2023/03/07 09:13:54;;;;;;;;;;;;;;;3.40;64.47;99171.71;107804;1254;61328;-82
2023/03/07 09:16:21;;;;;;;;;;;;;;;3.37;64.31;99167.98;107489;1254;124221;-82
2023/03/07 09:18:48;;;;;;;;;;;;;;;3.31;63.98;99157.42;107844;1257;74387;-82
2023/03/07 09:21:15;;;;;;;;;;;;;;;3.22;63.85;99150.58;107809;1256;124625;-82
2023/03/07 09:23:43;;;;;;;;;;;;;;;3.15;63.82;99139.79;107804;1254;72737;-82
2023/03/07 09:26:17;;;;;;;;;;;;;;;3.04;63.60;99132.89;107790;1256;124027;-82
2023/03/07 09:28:44;;;;;;;;;;;;;;;2.97;63.67;99125.77;107719;1257;61024;-82
2023/03/07 09:31:11;;;;;;;;;;;;;;;2.96;64.02;99122.42;107427;1256;73385;-82
2023/03/07 09:33:39;;;;;;;;;;;;;;;2.95;63.97;99117.55;107687;1254;123926;-82
2023/03/07 09:36:06;;;;;;;;;;;;;;;2.89;63.97;99118.08;108175;1254;72491;-82
2023/03/07 09:39:06;;;;;;;;;;;;;;;;;;;;;
2023/03/07 09:42:04;;;;;;;;;;;;;;;2.87;64.12;99104.17;100461;1254;10168181;-88
2023/03/07 09:44:58;;;;;;;;;;;;;;;2.83;64.26;99097.98;107251;1254;124308;-86
2023/03/07 09:47:33;;;;;;;;;;;;;;;2.73;64.38;99094.39;107524;1254;72714;-88
2023/03/07 09:50:11;;;;;;;;;;;;;;;2.63;64.54;99090.11;107692;1256;61163;-89
2023/03/07 09:52:38;;;;;;;;;;;;;;;2.57;64.73;99080.39;107790;1254;59830;-86
2023/03/07 09:55:10;;;;;;;;;;;;;;;2.46;65.06;99084.41;107705;1254;73918;-86
2023/03/07 09:57:58;;;;;;;;;;;;;;;2.38;65.22;99073.96;107818;1254;123534;-86
2023/03/07 10:00:28;;;;;;;;;;;;;;;2.32;65.35;99067.39;107815;1254;71982;-86
2023/03/07 10:03:15;;;;;;;;;;;;;;;2.29;65.59;99067.12;107968;1254;124303;-80
2023/03/07 10:05:43;;;;;;;;;;;;;;;2.29;66.06;99068.30;107834;1254;61138;-80
2023/03/07 10:08:12;;;;;;;;;;;;;;;2.27;66.22;99064.79;107858;1254;75247;-80
2023/03/07 10:10:40;;;;;;;;;;;;;;;2.20;66.33;99062.13;107964;1259;66819;-80
2023/03/07 10:13:30;;;;;;;;;;;;;;;2.12;66.80;99052.92;107636;1260;72509;-80
2023/03/07 10:16:01;;;;;;;;;;;;;;;2.11;67.11;99049.59;107779;1254;123759;-82
2023/03/07 10:18:37;;;;;;;;;;;;;;;2.08;66.99;99044.29;107969;1254;59493;-81
2023/03/07 10:21:23;;;;;;;;;;;;;;;2.08;67.43;99037.22;107714;1254;124088;-81
2023/03/07 10:24:03;;;;;;;;;;;;;;;2.13;67.60;99025.96;107286;1254;64760;-81
2023/03/07 10:26:32;;;;;;;;;;;;;;;2.16;67.94;99021.36;107458;1259;124470;-81
2023/03/07 10:29:00;;;;;;;;;;;;;;;2.18;68.38;99018.84;107531;1259;62164;-81
2023/03/07 10:31:33;;;;;;;;;;;;;;;2.29;68.61;99011.37;107475;1254;60027;-81
2023/03/07 10:34:04;;;;;;;;;;;;;;;2.38;68.63;99003.84;108454;1254;123496;-80
2023/03/07 10:36:36;;;;;;;;;;;;;;;2.35;68.71;99001.86;107793;1254;65862;-80
2023/03/07 10:39:06;;;;;;;;;;;;;;;2.41;68.89;98998.21;107465;1254;123796;-80
2023/03/07 10:41:33;;;;;;;;;;;;;;;2.48;68.88;98994.27;107615;1254;61270;-81
2023/03/07 10:44:00;;;;;;;;;;;;;;;2.48;68.80;98989.61;107641;1256;60492;-81
2023/03/07 10:46:28;;;;;;;;;;;;;;;2.46;68.53;98986.06;107787;1259;124248;-81
2023/03/07 10:49:11;;;;;;;;;;;;;;;2.39;68.93;98976.86;107794;1254;67074;-82
2023/03/07 10:51:43;;;;;;;;;;;;;;;2.47;69.08;98966.20;107649;1254;124867;-82
2023/03/07 10:54:13;;;;;;;;;;;;;;;2.55;69.20;98959.16;107685;1256;59453;-82
2023/03/07 10:56:40;;;;;;;;;;;;;;;2.61;69.11;98951.85;107863;1254;125003;-82
2023/03/07 10:59:08;;;;;;;;;;;;;;;2.61;68.97;98945.09;108061;1254;75093;-82
2023/03/07 11:01:36;;;;;;;;;;;;;;;2.69;69.02;98939.27;108054;1254;66984;-82
2023/03/07 11:04:04;;;;;;;;;;;;;;;2.83;69.10;98941.38;107592;1257;124785;-82
2023/03/07 11:06:31;;;;;;;;;;;;;;;2.92;68.97;98930.35;107855;1254;61355;-82
2023/03/07 11:09:07;;;;;;;;;;;;;;;2.97;69.00;98927.36;107639;1254;124364;-82
2023/03/07 11:11:34;;;;;;;;;;;;;;;2.96;68.89;98918.86;107581;1254;74752;-82
2023/03/07 11:14:08;;;;;;;;;;;;;;;2.95;69.18;98914.30;107768;1259;67176;-82
2023/03/07 11:16:40;;;;;;;;;;;;;;;3.03;69.80;98906.20;107522;1254;72451;-82
2023/03/07 11:19:25;;;;;;;;;;;;;;;3.14;69.86;98906.13;107601;1254;61302;-82
2023/03/07 11:21:52;;;;;;;;;;;;;;;3.20;69.37;98897.45;107422;1254;123757;-82
2023/03/07 11:24:29;;;;;;;;;;;;;;;3.26;69.21;98895.17;107737;1254;74416;-82
2023/03/07 11:26:57;;;;;;;;;;;;;;;3.24;68.99;98889.05;107734;1254;123697;-82
2023/03/07 11:29:24;;;;;;;;;;;;;;;3.17;69.03;98882.80;107648;1254;72666;-82
2023/03/07 11:31:57;;;;;;;;;;;;;;;3.12;69.13;98878.52;107446;1254;61205;-82
2023/03/07 11:34:30;;;;;;;;;;;;;;;3.05;69.05;98873.33;107645;1254;124312;-82
2023/03/07 11:37:02;;;;;;;;;;;;;;;2.95;69.10;98874.98;107859;1255;74642;-82
2023/03/07 11:39:32;;;;;;;;;;;;;;;2.81;69.05;98871.33;107898;1254;124379;-82
2023/03/07 11:42:21;;;;;;;;;;;;;;;2.69;69.17;98866.52;107605;1256;72751;-87
2023/03/07 11:44:48;;;;;;;;;;;;;;;2.61;69.35;98860.97;106942;1254;62115;-87
2023/03/07 11:47:29;;;;;;;;;;;;;;;2.56;69.40;98853.89;107226;1257;59259;-87
2023/03/07 11:50:03;;;;;;;;;;;;;;;2.49;69.50;98851.12;107472;1254;74823;-87
2023/03/07 11:52:37;;;;;;;;;;;;;;;2.43;69.52;98844.38;107306;1254;67138;-87
2023/03/07 11:55:14;;;;;;;;;;;;;;;2.39;69.79;98841.50;107319;1255;71166;-87
2023/03/07 11:58:04;;;;;;;;;;;;;;;2.34;69.87;98834.10;107184;1255;124211;-88
2023/03/07 12:00:50;;;;;;;;;;;;;;;2.31;70.04;98838.18;107484;1254;60364;-88
2023/03/07 12:06:59;;;;;;;;;;;;;;;2.28;70.18;98834.45;107314;1254;65141;-87
2023/03/07 12:09:28;;;;;;;;;;;;;;;2.24;70.22;98834.70;107058;1254;123549;-87
2023/03/07 12:12:04;;;;;;;;;;;;;;;2.21;70.53;98830.30;107375;1256;60078;-87
2023/03/07 12:14:35;;;;;;;;;;;;;;;2.19;70.61;98826.26;106934;1257;124671;-87
2023/03/07 12:17:15;;;;;;;;;;;;;;;2.19;70.69;98823.82;107133;1257;73390;-87
2023/03/07 12:22:56;;;;;;;;;;;;;;;2.22;71.13;98825.81;107542;1256;72440;-87
2023/03/07 12:25:42;;;;;;;;;;;;;;;2.25;71.13;98826.26;107244;1256;60695;-87
2023/03/07 12:28:48;;;;;;;;;;;;;;;2.28;71.22;98822.15;107078;1254;124345;-87
2023/03/07 12:31:33;;;;;;;;;;;;;;;2.33;71.41;98808.96;107477;1262;72459;-87
2023/03/07 12:34:13;;;;;;;;;;;;;;;2.42;71.41;98808.52;106998;1263;124344;-87
2023/03/07 12:36:50;;;;;;;;;;;;;;;2.52;71.71;98802.55;107041;1262;70443;-87
2023/03/07 12:39:22;;;;;;;;;;;;;;;2.62;71.72;98805.39;106754;1262;124016;-82
2023/03/07 12:41:51;;;;;;;;;;;;;;;2.65;71.65;98800.10;106784;1264;60144;-82
2023/03/07 12:44:27;;;;;;;;;;;;;;;2.66;71.32;98797.69;106715;1263;73065;-82
2023/03/07 12:47:07;;;;;;;;;;;;;;;2.68;71.56;98795.84;106866;1262;65591;-87
2023/03/07 12:49:34;;;;;;;;;;;;;;;2.70;71.60;98799.88;106913;1262;71087;-82
2023/03/07 12:52:02;;;;;;;;;;;;;;;2.72;71.61;98795.77;106755;1263;123587;-82
2023/03/07 12:54:38;;;;;;;;;;;;;;;2.79;71.68;98793.71;106641;1267;61788;-82
2023/03/07 12:57:16;;;;;;;;;;;;;;;2.92;71.81;98789.84;107144;1261;123779;-82
2023/03/07 12:59:43;;;;;;;;;;;;;;;3.06;71.84;98782.72;106865;1261;67163;-82
2023/03/07 13:02:13;;;;;;;;;;;;;;;3.22;71.89;98779.45;107223;1257;72614;-82
2023/03/07 13:04:42;;;;;;;;;;;;;;;3.38;71.76;98777.72;107359;1255;123898;-82
2023/03/07 13:07:12;;;;;;;;;;;;;;;3.48;71.59;98771.71;107290;1262;61997;-82